sensor_id;sensor_type;location;lat;lon;timestamp;temperature;humidity
16289;DHT22;26089;43.538;5.250;2023-05-20T00:01:15;13.70;99.90
16289;DHT22;26089;43.538;5.250;2023-05-20T00:03:42;13.70;99.90
16289;DHT22;26089;43.538;5.250;2023-05-20T00:06:09;13.70;99.90
16289;DHT22;26089;43.538;5.250;2023-05-20T00:08:36;13.70;99.90
16289;DHT22;26089;43.538;5.250;2023-05-20T00:11:04;13.70;99.90
16289;DHT22;26089;43.538;5.250;2023-05-20T00:13:31;13.70;99.90
16289;DHT22;26089;43.538;5.250;2023-05-20T00:16:00;13.60;99.90
16289;DHT22;26089;43.538;5.250;2023-05-20T00:18:27;13.60;99.90
16289;DHT22;26089;43.538;5.250;2023-05-20T00:20:54;13.60;99.90
16289;DHT22;26089;43.538;5.250;2023-05-20T00:23:21;13.60;99.90
16289;DHT22;26089;43.538;5.250;2023-05-20T00:25:48;13.60;99.90
16289;DHT22;26089;43.538;5.250;2023-05-20T00:28:16;13.60;99.90
16289;DHT22;26089;43.538;5.250;2023-05-20T00:30:44;13.60;99.90
16289;DHT22;26089;43.538;5.250;2023-05-20T00:33:11;13.60;99.90
16289;DHT22;26089;43.538;5.250;2023-05-20T00:35:38;13.50;99.90
16289;DHT22;26089;43.538;5.250;2023-05-20T00:38:05;13.50;99.90
16289;DHT22;26089;43.538;5.250;2023-05-20T00:40:32;13.50;99.90
16289;DHT22;26089;43.538;5.250;2023-05-20T00:42:59;13.50;99.90
16289;DHT22;26089;43.538;5.250;2023-05-20T00:45:27;13.50;99.90
16289;DHT22;26089;43.538;5.250;2023-05-20T00:47:54;13.50;99.90
16289;DHT22;26089;43.538;5.250;2023-05-20T00:50:24;13.60;99.90
16289;DHT22;26089;43.538;5.250;2023-05-20T00:52:51;13.50;99.90
16289;DHT22;26089;43.538;5.250;2023-05-20T00:55:19;13.50;99.90
16289;DHT22;26089;43.538;5.250;2023-05-20T00:57:47;13.50;99.90
16289;DHT22;26089;43.538;5.250;2023-05-20T01:00:14;13.60;99.90
16289;DHT22;26089;43.538;5.250;2023-05-20T01:02:43;13.60;99.90
16289;DHT22;26089;43.538;5.250;2023-05-20T01:05:10;13.50;99.90
16289;DHT22;26089;43.538;5.250;2023-05-20T01:07:37;13.60;99.90
16289;DHT22;26089;43.538;5.250;2023-05-20T01:10:04;13.50;99.90
16289;DHT22;26089;43.538;5.250;2023-05-20T01:12:36;13.60;99.90
16289;DHT22;26089;43.538;5.250;2023-05-20T01:15:07;13.60;99.90
16289;DHT22;26089;43.538;5.250;2023-05-20T01:17:37;13.60;99.90
16289;DHT22;26089;43.538;5.250;2023-05-20T01:20:08;13.60;99.90
16289;DHT22;26089;43.538;5.250;2023-05-20T01:22:38;13.60;99.90
16289;DHT22;26089;43.538;5.250;2023-05-20T01:25:05;13.50;99.90
16289;DHT22;26089;43.538;5.250;2023-05-20T01:27:33;13.60;99.90
16289;DHT22;26089;43.538;5.250;2023-05-20T01:30:00;13.50;99.90
16289;DHT22;26089;43.538;5.250;2023-05-20T01:32:30;13.50;99.90
16289;DHT22;26089;43.538;5.250;2023-05-20T01:34:58;13.50;99.90
16289;DHT22;26089;43.538;5.250;2023-05-20T01:37:26;13.50;99.90
16289;DHT22;26089;43.538;5.250;2023-05-20T01:39:55;13.50;99.90
16289;DHT22;26089;43.538;5.250;2023-05-20T01:42:24;13.50;99.90
16289;DHT22;26089;43.538;5.250;2023-05-20T01:44:52;13.40;99.90
16289;DHT22;26089;43.538;5.250;2023-05-20T01:47:19;13.60;99.90
16289;DHT22;26089;43.538;5.250;2023-05-20T01:49:46;13.50;99.90
16289;DHT22;26089;43.538;5.250;2023-05-20T01:52:14;13.50;99.90
16289;DHT22;26089;43.538;5.250;2023-05-20T01:54:41;13.50;99.90
16289;DHT22;26089;43.538;5.250;2023-05-20T01:57:09;13.50;99.90
16289;DHT22;26089;43.538;5.250;2023-05-20T01:59:36;13.50;99.90
16289;DHT22;26089;43.538;5.250;2023-05-20T02:02:04;13.50;99.90
16289;DHT22;26089;43.538;5.250;2023-05-20T02:04:31;13.50;99.90
16289;DHT22;26089;43.538;5.250;2023-05-20T02:06:58;13.40;99.90
16289;DHT22;26089;43.538;5.250;2023-05-20T02:09:24;13.40;99.90
16289;DHT22;26089;43.538;5.250;2023-05-20T02:11:51;13.40;99.90
16289;DHT22;26089;43.538;5.250;2023-05-20T02:14:20;13.40;99.90
16289;DHT22;26089;43.538;5.250;2023-05-20T02:16:47;13.40;99.90
16289;DHT22;26089;43.538;5.250;2023-05-20T02:19:14;14.10;99.90
16289;DHT22;26089;43.538;5.250;2023-05-20T02:21:48;13.30;99.90
16289;DHT22;26089;43.538;5.250;2023-05-20T02:24:15;13.30;99.90
16289;DHT22;26089;43.538;5.250;2023-05-20T02:26:44;13.30;99.90
16289;DHT22;26089;43.538;5.250;2023-05-20T02:29:12;13.30;99.90
16289;DHT22;26089;43.538;5.250;2023-05-20T02:31:40;13.30;99.90
16289;DHT22;26089;43.538;5.250;2023-05-20T02:34:07;13.30;99.90
16289;DHT22;26089;43.538;5.250;2023-05-20T02:36:34;13.30;99.90
16289;DHT22;26089;43.538;5.250;2023-05-20T02:39:01;13.30;99.90
16289;DHT22;26089;43.538;5.250;2023-05-20T02:41:28;13.20;99.90
16289;DHT22;26089;43.538;5.250;2023-05-20T02:43:55;13.30;99.90
16289;DHT22;26089;43.538;5.250;2023-05-20T02:46:22;13.20;99.90
16289;DHT22;26089;43.538;5.250;2023-05-20T02:48:50;13.40;99.90
16289;DHT22;26089;43.538;5.250;2023-05-20T02:51:17;13.20;99.90
16289;DHT22;26089;43.538;5.250;2023-05-20T02:53:45;13.10;99.90
16289;DHT22;26089;43.538;5.250;2023-05-20T02:56:13;13.10;99.90
16289;DHT22;26089;43.538;5.250;2023-05-20T02:58:40;13.10;99.90
16289;DHT22;26089;43.538;5.250;2023-05-20T03:01:07;13.00;99.90
16289;DHT22;26089;43.538;5.250;2023-05-20T03:03:35;13.00;99.90
16289;DHT22;26089;43.538;5.250;2023-05-20T03:06:04;13.00;99.90
16289;DHT22;26089;43.538;5.250;2023-05-20T03:08:31;13.00;99.90
16289;DHT22;26089;43.538;5.250;2023-05-20T03:10:59;12.90;99.90
16289;DHT22;26089;43.538;5.250;2023-05-20T03:13:25;12.90;99.90
16289;DHT22;26089;43.538;5.250;2023-05-20T03:15:52;12.90;99.90
16289;DHT22;26089;43.538;5.250;2023-05-20T03:18:19;12.90;99.90
16289;DHT22;26089;43.538;5.250;2023-05-20T03:20:46;12.90;99.90
16289;DHT22;26089;43.538;5.250;2023-05-20T03:23:15;12.90;99.90
16289;DHT22;26089;43.538;5.250;2023-05-20T03:25:42;12.90;99.90
16289;DHT22;26089;43.538;5.250;2023-05-20T03:28:09;12.80;99.90
16289;DHT22;26089;43.538;5.250;2023-05-20T03:30:35;12.80;99.90
16289;DHT22;26089;43.538;5.250;2023-05-20T03:33:02;12.80;99.90
16289;DHT22;26089;43.538;5.250;2023-05-20T03:35:30;12.60;99.90
16289;DHT22;26089;43.538;5.250;2023-05-20T03:37:57;12.80;99.90
16289;DHT22;26089;43.538;5.250;2023-05-20T03:40:27;12.80;99.90
16289;DHT22;26089;43.538;5.250;2023-05-20T03:42:54;12.80;99.90
16289;DHT22;26089;43.538;5.250;2023-05-20T03:45:21;12.80;99.90
16289;DHT22;26089;43.538;5.250;2023-05-20T03:47:48;12.80;99.90
16289;DHT22;26089;43.538;5.250;2023-05-20T03:50:15;12.80;99.90
16289;DHT22;26089;43.538;5.250;2023-05-20T03:52:42;12.80;99.90
16289;DHT22;26089;43.538;5.250;2023-05-20T03:55:09;12.80;99.90
16289;DHT22;26089;43.538;5.250;2023-05-20T03:57:38;12.90;99.90
16289;DHT22;26089;43.538;5.250;2023-05-20T04:00:06;12.80;99.90
16289;DHT22;26089;43.538;5.250;2023-05-20T04:02:36;12.80;99.90
16289;DHT22;26089;43.538;5.250;2023-05-20T04:05:04;12.80;99.90
16289;DHT22;26089;43.538;5.250;2023-05-20T04:07:33;12.90;99.90
16289;DHT22;26089;43.538;5.250;2023-05-20T04:10:00;12.90;99.90
16289;DHT22;26089;43.538;5.250;2023-05-20T04:12:27;12.90;99.90
16289;DHT22;26089;43.538;5.250;2023-05-20T04:14:57;12.80;99.90
16289;DHT22;26089;43.538;5.250;2023-05-20T04:17:26;12.90;99.90
16289;DHT22;26089;43.538;5.250;2023-05-20T04:19:54;12.90;99.90
16289;DHT22;26089;43.538;5.250;2023-05-20T04:22:22;12.90;99.90
16289;DHT22;26089;43.538;5.250;2023-05-20T04:24:49;12.80;99.90
16289;DHT22;26089;43.538;5.250;2023-05-20T04:27:16;12.90;99.90
16289;DHT22;26089;43.538;5.250;2023-05-20T04:29:43;12.90;99.90
16289;DHT22;26089;43.538;5.250;2023-05-20T04:32:12;12.80;99.90
16289;DHT22;26089;43.538;5.250;2023-05-20T04:34:39;12.90;99.90
16289;DHT22;26089;43.538;5.250;2023-05-20T04:37:06;12.90;99.90
16289;DHT22;26089;43.538;5.250;2023-05-20T04:39:34;12.90;99.90
16289;DHT22;26089;43.538;5.250;2023-05-20T04:42:01;13.00;99.90
16289;DHT22;26089;43.538;5.250;2023-05-20T04:44:29;13.00;99.90
16289;DHT22;26089;43.538;5.250;2023-05-20T04:46:56;13.00;99.90
16289;DHT22;26089;43.538;5.250;2023-05-20T04:49:25;13.00;99.90
16289;DHT22;26089;43.538;5.250;2023-05-20T04:51:53;13.00;99.90
16289;DHT22;26089;43.538;5.250;2023-05-20T04:54:21;13.10;99.90
16289;DHT22;26089;43.538;5.250;2023-05-20T04:56:48;13.10;99.90
16289;DHT22;26089;43.538;5.250;2023-05-20T04:59:15;13.10;99.90
16289;DHT22;26089;43.538;5.250;2023-05-20T05:01:42;13.20;99.90
16289;DHT22;26089;43.538;5.250;2023-05-20T05:04:09;13.20;99.90
16289;DHT22;26089;43.538;5.250;2023-05-20T05:06:38;13.20;99.90
16289;DHT22;26089;43.538;5.250;2023-05-20T05:09:05;13.20;99.90
16289;DHT22;26089;43.538;5.250;2023-05-20T05:11:32;13.30;99.90
16289;DHT22;26089;43.538;5.250;2023-05-20T05:13:59;13.30;99.90
16289;DHT22;26089;43.538;5.250;2023-05-20T05:16:26;13.30;99.90
16289;DHT22;26089;43.538;5.250;2023-05-20T05:18:53;13.30;99.90
16289;DHT22;26089;43.538;5.250;2023-05-20T05:21:20;13.30;99.90
16289;DHT22;26089;43.538;5.250;2023-05-20T05:23:48;13.30;99.90
16289;DHT22;26089;43.538;5.250;2023-05-20T05:26:15;13.40;99.90
16289;DHT22;26089;43.538;5.250;2023-05-20T05:28:42;13.50;99.90
16289;DHT22;26089;43.538;5.250;2023-05-20T05:31:09;13.50;99.90
16289;DHT22;26089;43.538;5.250;2023-05-20T05:33:36;13.50;99.90
16289;DHT22;26089;43.538;5.250;2023-05-20T05:36:03;13.60;99.90
16289;DHT22;26089;43.538;5.250;2023-05-20T05:38:31;13.60;99.90
16289;DHT22;26089;43.538;5.250;2023-05-20T05:40:59;13.60;99.90
16289;DHT22;26089;43.538;5.250;2023-05-20T05:43:26;13.60;99.90
16289;DHT22;26089;43.538;5.250;2023-05-20T05:45:53;13.60;99.90
16289;DHT22;26089;43.538;5.250;2023-05-20T05:48:20;13.60;99.90
16289;DHT22;26089;43.538;5.250;2023-05-20T05:50:48;13.70;99.90
16289;DHT22;26089;43.538;5.250;2023-05-20T05:53:15;13.70;99.90
16289;DHT22;26089;43.538;5.250;2023-05-20T05:55:42;13.80;99.90
16289;DHT22;26089;43.538;5.250;2023-05-20T05:58:10;13.80;99.90
16289;DHT22;26089;43.538;5.250;2023-05-20T06:00:38;13.90;99.90
16289;DHT22;26089;43.538;5.250;2023-05-20T06:03:04;13.90;99.90
16289;DHT22;26089;43.538;5.250;2023-05-20T06:05:31;13.90;99.90
16289;DHT22;26089;43.538;5.250;2023-05-20T06:07:58;14.00;99.90
16289;DHT22;26089;43.538;5.250;2023-05-20T06:10:25;14.00;99.90
16289;DHT22;26089;43.538;5.250;2023-05-20T06:12:52;14.00;99.90
16289;DHT22;26089;43.538;5.250;2023-05-20T06:15:21;14.10;99.90
16289;DHT22;26089;43.538;5.250;2023-05-20T06:17:48;14.20;99.90
16289;DHT22;26089;43.538;5.250;2023-05-20T06:20:15;14.30;99.90
16289;DHT22;26089;43.538;5.250;2023-05-20T06:22:42;14.30;99.90
16289;DHT22;26089;43.538;5.250;2023-05-20T06:25:09;14.30;99.90
16289;DHT22;26089;43.538;5.250;2023-05-20T06:27:36;14.30;99.90
16289;DHT22;26089;43.538;5.250;2023-05-20T06:30:04;14.30;99.90
16289;DHT22;26089;43.538;5.250;2023-05-20T06:32:33;14.30;99.90
16289;DHT22;26089;43.538;5.250;2023-05-20T06:35:00;14.40;99.90
16289;DHT22;26089;43.538;5.250;2023-05-20T06:37:27;14.30;99.90
16289;DHT22;26089;43.538;5.250;2023-05-20T06:39:54;14.40;99.90
16289;DHT22;26089;43.538;5.250;2023-05-20T06:42:21;14.50;99.90
16289;DHT22;26089;43.538;5.250;2023-05-20T06:44:48;14.50;99.90
16289;DHT22;26089;43.538;5.250;2023-05-20T06:47:15;14.50;99.90
16289;DHT22;26089;43.538;5.250;2023-05-20T06:49:44;14.60;99.90
16289;DHT22;26089;43.538;5.250;2023-05-20T06:52:11;14.60;99.90
16289;DHT22;26089;43.538;5.250;2023-05-20T06:54:38;14.70;99.90
16289;DHT22;26089;43.538;5.250;2023-05-20T06:57:06;14.70;99.90
16289;DHT22;26089;43.538;5.250;2023-05-20T06:59:34;14.80;99.90
16289;DHT22;26089;43.538;5.250;2023-05-20T07:02:01;14.80;99.90
16289;DHT22;26089;43.538;5.250;2023-05-20T07:04:28;14.90;99.90
16289;DHT22;26089;43.538;5.250;2023-05-20T07:06:56;15.50;99.90
16289;DHT22;26089;43.538;5.250;2023-05-20T07:09:23;15.00;99.90
16289;DHT22;26089;43.538;5.250;2023-05-20T07:11:50;15.00;99.90
16289;DHT22;26089;43.538;5.250;2023-05-20T07:14:17;15.10;99.90
16289;DHT22;26089;43.538;5.250;2023-05-20T07:16:44;15.10;99.90
16289;DHT22;26089;43.538;5.250;2023-05-20T07:19:11;15.10;99.90
16289;DHT22;26089;43.538;5.250;2023-05-20T07:21:38;15.20;99.90
16289;DHT22;26089;43.538;5.250;2023-05-20T07:24:06;15.20;99.90
16289;DHT22;26089;43.538;5.250;2023-05-20T07:26:33;15.30;99.90
16289;DHT22;26089;43.538;5.250;2023-05-20T07:29:01;15.30;99.90
16289;DHT22;26089;43.538;5.250;2023-05-20T07:31:29;15.20;99.90
16289;DHT22;26089;43.538;5.250;2023-05-20T07:33:56;15.30;99.90
16289;DHT22;26089;43.538;5.250;2023-05-20T07:36:25;15.40;99.90
16289;DHT22;26089;43.538;5.250;2023-05-20T07:38:52;15.40;99.90
16289;DHT22;26089;43.538;5.250;2023-05-20T07:41:21;15.50;99.90
16289;DHT22;26089;43.538;5.250;2023-05-20T07:43:48;15.50;99.90
16289;DHT22;26089;43.538;5.250;2023-05-20T07:46:15;15.60;99.90
16289;DHT22;26089;43.538;5.250;2023-05-20T07:48:42;15.70;99.90
16289;DHT22;26089;43.538;5.250;2023-05-20T07:51:10;15.60;99.90
16289;DHT22;26089;43.538;5.250;2023-05-20T07:53:37;15.60;99.90
16289;DHT22;26089;43.538;5.250;2023-05-20T07:56:04;15.60;99.90
16289;DHT22;26089;43.538;5.250;2023-05-20T07:58:33;15.60;99.90
16289;DHT22;26089;43.538;5.250;2023-05-20T08:01:00;15.60;99.90
16289;DHT22;26089;43.538;5.250;2023-05-20T08:03:27;15.70;99.90
16289;DHT22;26089;43.538;5.250;2023-05-20T08:05:54;15.70;99.90
16289;DHT22;26089;43.538;5.250;2023-05-20T08:08:21;15.70;99.90
16289;DHT22;26089;43.538;5.250;2023-05-20T08:10:49;15.70;99.90
16289;DHT22;26089;43.538;5.250;2023-05-20T08:13:16;15.80;99.90
16289;DHT22;26089;43.538;5.250;2023-05-20T08:15:44;15.90;99.90
16289;DHT22;26089;43.538;5.250;2023-05-20T08:18:13;16.00;99.90
16289;DHT22;26089;43.538;5.250;2023-05-20T08:20:40;16.10;99.90
16289;DHT22;26089;43.538;5.250;2023-05-20T08:23:08;16.30;99.90
16289;DHT22;26089;43.538;5.250;2023-05-20T08:25:35;16.40;99.90
16289;DHT22;26089;43.538;5.250;2023-05-20T08:28:02;16.40;99.90
16289;DHT22;26089;43.538;5.250;2023-05-20T08:30:31;16.40;99.90
16289;DHT22;26089;43.538;5.250;2023-05-20T08:33:00;16.30;99.90
16289;DHT22;26089;43.538;5.250;2023-05-20T08:35:27;16.30;99.90
16289;DHT22;26089;43.538;5.250;2023-05-20T08:37:54;16.10;99.90
16289;DHT22;26089;43.538;5.250;2023-05-20T08:40:21;16.10;99.90
16289;DHT22;26089;43.538;5.250;2023-05-20T08:42:49;16.20;99.90
16289;DHT22;26089;43.538;5.250;2023-05-20T08:45:19;16.30;99.90
16289;DHT22;26089;43.538;5.250;2023-05-20T08:47:49;16.30;99.90
16289;DHT22;26089;43.538;5.250;2023-05-20T08:50:18;16.40;99.90
16289;DHT22;26089;43.538;5.250;2023-05-20T08:52:46;16.60;99.90
16289;DHT22;26089;43.538;5.250;2023-05-20T08:55:23;16.90;99.90
16289;DHT22;26089;43.538;5.250;2023-05-20T08:57:51;17.40;99.90
16289;DHT22;26089;43.538;5.250;2023-05-20T09:00:19;18.00;99.90
16289;DHT22;26089;43.538;5.250;2023-05-20T09:02:48;18.50;99.90
16289;DHT22;26089;43.538;5.250;2023-05-20T09:05:18;18.70;99.90
16289;DHT22;26089;43.538;5.250;2023-05-20T09:07:45;18.80;99.90
16289;DHT22;26089;43.538;5.250;2023-05-20T09:10:13;19.10;99.90
16289;DHT22;26089;43.538;5.250;2023-05-20T09:12:40;19.20;99.90
16289;DHT22;26089;43.538;5.250;2023-05-20T09:15:08;19.20;99.90
16289;DHT22;26089;43.538;5.250;2023-05-20T09:17:35;19.00;99.90
16289;DHT22;26089;43.538;5.250;2023-05-20T09:20:05;18.90;99.90
16289;DHT22;26089;43.538;5.250;2023-05-20T09:22:37;19.00;99.90
16289;DHT22;26089;43.538;5.250;2023-05-20T09:25:05;19.30;99.90
16289;DHT22;26089;43.538;5.250;2023-05-20T09:27:32;19.60;99.90
16289;DHT22;26089;43.538;5.250;2023-05-20T09:29:59;19.40;99.90
16289;DHT22;26089;43.538;5.250;2023-05-20T09:32:27;19.60;99.90
16289;DHT22;26089;43.538;5.250;2023-05-20T09:34:54;19.30;99.90
16289;DHT22;26089;43.538;5.250;2023-05-20T09:37:21;19.10;99.90
16289;DHT22;26089;43.538;5.250;2023-05-20T09:39:55;19.00;99.90
16289;DHT22;26089;43.538;5.250;2023-05-20T09:42:26;19.20;99.90
16289;DHT22;26089;43.538;5.250;2023-05-20T09:44:54;19.70;99.90
16289;DHT22;26089;43.538;5.250;2023-05-20T09:47:24;19.90;99.90
16289;DHT22;26089;43.538;5.250;2023-05-20T09:49:51;20.10;99.90
16289;DHT22;26089;43.538;5.250;2023-05-20T09:52:19;20.10;99.90
16289;DHT22;26089;43.538;5.250;2023-05-20T09:54:47;19.80;99.90
16289;DHT22;26089;43.538;5.250;2023-05-20T09:57:16;19.80;99.90
16289;DHT22;26089;43.538;5.250;2023-05-20T09:59:44;19.90;99.90
16289;DHT22;26089;43.538;5.250;2023-05-20T10:02:12;20.00;99.90
16289;DHT22;26089;43.538;5.250;2023-05-20T10:04:43;20.40;99.90
16289;DHT22;26089;43.538;5.250;2023-05-20T10:10:24;21.20;99.90
16289;DHT22;26089;43.538;5.250;2023-05-20T10:13:03;21.10;99.90
16289;DHT22;26089;43.538;5.250;2023-05-20T10:15:38;21.00;99.90
16289;DHT22;26089;43.538;5.250;2023-05-20T10:18:13;21.00;99.90
16289;DHT22;26089;43.538;5.250;2023-05-20T10:20:45;20.80;99.90
16289;DHT22;26089;43.538;5.250;2023-05-20T10:23:20;20.70;99.90
16289;DHT22;26089;43.538;5.250;2023-05-20T10:25:52;20.30;99.90
16289;DHT22;26089;43.538;5.250;2023-05-20T10:28:27;20.50;99.90
16289;DHT22;26089;43.538;5.250;2023-05-20T10:30:56;20.60;99.90
16289;DHT22;26089;43.538;5.250;2023-05-20T10:33:25;20.70;99.90
16289;DHT22;26089;43.538;5.250;2023-05-20T10:35:53;20.50;99.90
16289;DHT22;26089;43.538;5.250;2023-05-20T10:38:20;20.40;99.90
16289;DHT22;26089;43.538;5.250;2023-05-20T10:40:48;20.20;99.90
16289;DHT22;26089;43.538;5.250;2023-05-20T10:43:15;20.00;99.90
16289;DHT22;26089;43.538;5.250;2023-05-20T10:45:52;20.00;99.90
16289;DHT22;26089;43.538;5.250;2023-05-20T10:48:21;20.00;99.90
16289;DHT22;26089;43.538;5.250;2023-05-20T10:50:49;19.90;99.90
16289;DHT22;26089;43.538;5.250;2023-05-20T10:53:16;19.90;99.90
16289;DHT22;26089;43.538;5.250;2023-05-20T10:55:48;19.70;99.90
16289;DHT22;26089;43.538;5.250;2023-05-20T10:58:16;19.60;99.90
16289;DHT22;26089;43.538;5.250;2023-05-20T11:00:44;19.60;99.90
16289;DHT22;26089;43.538;5.250;2023-05-20T11:03:13;19.50;99.90
16289;DHT22;26089;43.538;5.250;2023-05-20T11:05:41;19.40;99.90
16289;DHT22;26089;43.538;5.250;2023-05-20T11:08:08;19.30;99.90
16289;DHT22;26089;43.538;5.250;2023-05-20T11:10:35;19.30;99.90
16289;DHT22;26089;43.538;5.250;2023-05-20T11:13:03;19.20;99.90
16289;DHT22;26089;43.538;5.250;2023-05-20T11:15:31;19.30;99.90
16289;DHT22;26089;43.538;5.250;2023-05-20T11:18:01;19.20;99.90
16289;DHT22;26089;43.538;5.250;2023-05-20T11:20:30;19.00;99.90
16289;DHT22;26089;43.538;5.250;2023-05-20T11:23:00;18.90;99.90
16289;DHT22;26089;43.538;5.250;2023-05-20T11:25:27;18.90;99.90
16289;DHT22;26089;43.538;5.250;2023-05-20T11:27:54;19.00;99.90
16289;DHT22;26089;43.538;5.250;2023-05-20T11:30:21;19.00;99.90
16289;DHT22;26089;43.538;5.250;2023-05-20T11:32:58;19.20;99.90
16289;DHT22;26089;43.538;5.250;2023-05-20T11:35:26;19.10;99.90
16289;DHT22;26089;43.538;5.250;2023-05-20T11:37:56;19.10;99.90
16289;DHT22;26089;43.538;5.250;2023-05-20T11:40:24;19.10;99.90
16289;DHT22;26089;43.538;5.250;2023-05-20T11:42:53;19.00;99.90
16289;DHT22;26089;43.538;5.250;2023-05-20T11:45:22;19.00;99.90
16289;DHT22;26089;43.538;5.250;2023-05-20T11:48:02;18.90;99.90
16289;DHT22;26089;43.538;5.250;2023-05-20T11:50:33;18.80;99.90
16289;DHT22;26089;43.538;5.250;2023-05-20T11:53:03;18.90;99.90
16289;DHT22;26089;43.538;5.250;2023-05-20T11:55:31;18.80;99.90
16289;DHT22;26089;43.538;5.250;2023-05-20T11:57:59;18.80;99.90
16289;DHT22;26089;43.538;5.250;2023-05-20T12:00:27;18.80;99.90
16289;DHT22;26089;43.538;5.250;2023-05-20T12:02:54;18.80;99.90
16289;DHT22;26089;43.538;5.250;2023-05-20T12:05:21;18.80;99.90
16289;DHT22;26089;43.538;5.250;2023-05-20T12:07:48;18.70;99.90
16289;DHT22;26089;43.538;5.250;2023-05-20T12:10:17;18.70;99.90
16289;DHT22;26089;43.538;5.250;2023-05-20T12:12:44;18.70;99.90
16289;DHT22;26089;43.538;5.250;2023-05-20T12:15:11;18.70;99.90
16289;DHT22;26089;43.538;5.250;2023-05-20T12:17:46;18.60;99.90
16289;DHT22;26089;43.538;5.250;2023-05-20T12:20:14;18.60;99.90
16289;DHT22;26089;43.538;5.250;2023-05-20T12:22:42;18.60;99.90
16289;DHT22;26089;43.538;5.250;2023-05-20T12:25:11;18.60;99.90
16289;DHT22;26089;43.538;5.250;2023-05-20T12:27:41;18.60;99.90
16289;DHT22;26089;43.538;5.250;2023-05-20T12:30:14;18.70;99.90
16289;DHT22;26089;43.538;5.250;2023-05-20T12:32:42;18.80;99.90
16289;DHT22;26089;43.538;5.250;2023-05-20T12:35:09;19.00;99.90
16289;DHT22;26089;43.538;5.250;2023-05-20T12:37:36;19.00;99.90
16289;DHT22;26089;43.538;5.250;2023-05-20T12:40:04;19.10;99.90
16289;DHT22;26089;43.538;5.250;2023-05-20T12:42:33;19.30;99.90
16289;DHT22;26089;43.538;5.250;2023-05-20T12:45:02;19.30;99.90
16289;DHT22;26089;43.538;5.250;2023-05-20T12:47:29;19.10;99.90
16289;DHT22;26089;43.538;5.250;2023-05-20T12:49:56;19.00;99.90
16289;DHT22;26089;43.538;5.250;2023-05-20T12:52:23;18.90;99.90
16289;DHT22;26089;43.538;5.250;2023-05-20T12:54:50;18.90;99.90
16289;DHT22;26089;43.538;5.250;2023-05-20T12:57:17;18.80;99.90
16289;DHT22;26089;43.538;5.250;2023-05-20T12:59:44;18.70;99.90
16289;DHT22;26089;43.538;5.250;2023-05-20T13:02:12;18.60;99.90
16289;DHT22;26089;43.538;5.250;2023-05-20T13:04:39;18.60;99.90
16289;DHT22;26089;43.538;5.250;2023-05-20T13:07:06;18.50;99.90
16289;DHT22;26089;43.538;5.250;2023-05-20T13:09:33;18.50;99.90
16289;DHT22;26089;43.538;5.250;2023-05-20T13:12:00;18.40;99.90
16289;DHT22;26089;43.538;5.250;2023-05-20T13:14:28;18.30;99.90
16289;DHT22;26089;43.538;5.250;2023-05-20T13:16:55;18.30;99.90
16289;DHT22;26089;43.538;5.250;2023-05-20T13:19:23;18.20;99.90
16289;DHT22;26089;43.538;5.250;2023-05-20T13:21:50;18.20;99.90
16289;DHT22;26089;43.538;5.250;2023-05-20T13:24:18;18.10;99.90
16289;DHT22;26089;43.538;5.250;2023-05-20T13:26:46;18.20;99.90
16289;DHT22;26089;43.538;5.250;2023-05-20T13:29:13;18.30;99.90
16289;DHT22;26089;43.538;5.250;2023-05-20T13:31:42;18.40;99.90
16289;DHT22;26089;43.538;5.250;2023-05-20T13:34:09;18.40;99.90
16289;DHT22;26089;43.538;5.250;2023-05-20T13:36:37;18.40;99.90
16289;DHT22;26089;43.538;5.250;2023-05-20T13:39:05;18.40;99.90
16289;DHT22;26089;43.538;5.250;2023-05-20T13:41:32;18.40;99.90
16289;DHT22;26089;43.538;5.250;2023-05-20T13:43:59;18.40;99.90
16289;DHT22;26089;43.538;5.250;2023-05-20T13:46:26;18.30;99.90
16289;DHT22;26089;43.538;5.250;2023-05-20T13:48:53;18.30;99.90
16289;DHT22;26089;43.538;5.250;2023-05-20T13:51:20;18.40;99.90
16289;DHT22;26089;43.538;5.250;2023-05-20T13:53:48;18.30;99.90
16289;DHT22;26089;43.538;5.250;2023-05-20T13:56:15;18.30;99.90
16289;DHT22;26089;43.538;5.250;2023-05-20T13:58:42;18.30;99.90
16289;DHT22;26089;43.538;5.250;2023-05-20T14:01:09;18.40;99.90
16289;DHT22;26089;43.538;5.250;2023-05-20T14:03:37;18.50;99.90
16289;DHT22;26089;43.538;5.250;2023-05-20T14:06:05;18.50;99.90
16289;DHT22;26089;43.538;5.250;2023-05-20T14:08:32;18.50;99.90
16289;DHT22;26089;43.538;5.250;2023-05-20T14:11:00;18.60;99.90
16289;DHT22;26089;43.538;5.250;2023-05-20T14:13:27;18.70;99.90
16289;DHT22;26089;43.538;5.250;2023-05-20T14:15:54;18.90;99.90
16289;DHT22;26089;43.538;5.250;2023-05-20T14:18:21;18.90;99.90
16289;DHT22;26089;43.538;5.250;2023-05-20T14:20:48;18.90;99.90
16289;DHT22;26089;43.538;5.250;2023-05-20T14:23:15;19.00;99.90
16289;DHT22;26089;43.538;5.250;2023-05-20T14:25:42;19.00;99.90
16289;DHT22;26089;43.538;5.250;2023-05-20T14:28:11;19.00;99.90
16289;DHT22;26089;43.538;5.250;2023-05-20T14:30:37;19.00;99.90
16289;DHT22;26089;43.538;5.250;2023-05-20T14:33:04;19.10;99.90
16289;DHT22;26089;43.538;5.250;2023-05-20T14:35:31;19.00;99.90
16289;DHT22;26089;43.538;5.250;2023-05-20T14:37:58;19.10;99.90
16289;DHT22;26089;43.538;5.250;2023-05-20T14:40:25;19.10;99.90
16289;DHT22;26089;43.538;5.250;2023-05-20T14:42:52;19.00;99.90
16289;DHT22;26089;43.538;5.250;2023-05-20T14:45:21;19.20;99.90
16289;DHT22;26089;43.538;5.250;2023-05-20T14:47:48;19.10;99.90
16289;DHT22;26089;43.538;5.250;2023-05-20T14:50:15;19.10;99.90
16289;DHT22;26089;43.538;5.250;2023-05-20T14:52:42;19.10;99.90
16289;DHT22;26089;43.538;5.250;2023-05-20T14:55:09;19.20;99.90
16289;DHT22;26089;43.538;5.250;2023-05-20T14:57:36;19.20;99.90
16289;DHT22;26089;43.538;5.250;2023-05-20T15:00:04;19.10;99.90
16289;DHT22;26089;43.538;5.250;2023-05-20T15:02:32;19.20;99.90
16289;DHT22;26089;43.538;5.250;2023-05-20T15:04:59;19.30;99.90
16289;DHT22;26089;43.538;5.250;2023-05-20T15:07:26;19.10;99.90
16289;DHT22;26089;43.538;5.250;2023-05-20T15:09:53;19.00;99.90
16289;DHT22;26089;43.538;5.250;2023-05-20T15:12:20;18.80;99.90
16289;DHT22;26089;43.538;5.250;2023-05-20T15:14:47;18.70;99.90
16289;DHT22;26089;43.538;5.250;2023-05-20T15:17:14;18.60;99.90
16289;DHT22;26089;43.538;5.250;2023-05-20T15:19:43;18.50;99.90
16289;DHT22;26089;43.538;5.250;2023-05-20T15:22:09;18.40;99.90
16289;DHT22;26089;43.538;5.250;2023-05-20T15:24:36;18.30;99.90
16289;DHT22;26089;43.538;5.250;2023-05-20T15:27:04;18.20;99.90
16289;DHT22;26089;43.538;5.250;2023-05-20T15:29:31;18.20;99.90
16289;DHT22;26089;43.538;5.250;2023-05-20T15:31:58;18.10;99.90
16289;DHT22;26089;43.538;5.250;2023-05-20T15:34:25;18.10;99.90
16289;DHT22;26089;43.538;5.250;2023-05-20T15:36:53;18.00;99.90